sensor_id;sensor_type;location;lat;lon;timestamp;pressure;altitude;pressure_sealevel;temperature;humidity
64192;BME280;50497;50.720;-2.084;2023-03-15T00:02:21;101312.75;;;3.87;100.00
64192;BME280;50497;50.720;-2.084;2023-03-15T00:04:51;101291.59;;;3.85;100.00
64192;BME280;50497;50.720;-2.084;2023-03-15T00:07:19;101289.00;;;3.79;100.00
64192;BME280;50497;50.720;-2.084;2023-03-15T00:09:52;101296.94;;;3.78;100.00
64192;BME280;50497;50.720;-2.084;2023-03-15T00:12:21;101299.66;;;3.70;100.00
64192;BME280;50497;50.720;-2.084;2023-03-15T00:14:53;101294.56;;;3.50;100.00
64192;BME280;50497;50.720;-2.084;2023-03-15T00:17:19;101341.25;;;3.59;100.00
64192;BME280;50497;50.720;-2.084;2023-03-15T00:19:48;101328.06;;;3.53;100.00
64192;BME280;50497;50.720;-2.084;2023-03-15T00:22:15;101354.53;;;3.49;100.00
64192;BME280;50497;50.720;-2.084;2023-03-15T00:24:42;101359.00;;;3.44;100.00
64192;BME280;50497;50.720;-2.084;2023-03-15T00:27:08;101374.03;;;3.38;100.00
64192;BME280;50497;50.720;-2.084;2023-03-15T00:29:38;101360.88;;;3.25;100.00
64192;BME280;50497;50.720;-2.084;2023-03-15T00:32:08;101367.13;;;3.13;100.00
64192;BME280;50497;50.720;-2.084;2023-03-15T00:34:33;101334.69;;;2.93;100.00
64192;BME280;50497;50.720;-2.084;2023-03-15T00:36:59;101356.63;;;3.07;100.00
64192;BME280;50497;50.720;-2.084;2023-03-15T00:39:26;101346.91;;;3.08;100.00
64192;BME280;50497;50.720;-2.084;2023-03-15T00:41:55;101324.19;;;2.81;100.00
64192;BME280;50497;50.720;-2.084;2023-03-15T00:44:26;101376.97;;;2.90;100.00
64192;BME280;50497;50.720;-2.084;2023-03-15T00:46:52;101395.56;;;2.81;100.00
64192;BME280;50497;50.720;-2.084;2023-03-15T00:49:19;101366.53;;;2.67;100.00
64192;BME280;50497;50.720;-2.084;2023-03-15T00:51:45;101391.16;;;2.72;100.00
64192;BME280;50497;50.720;-2.084;2023-03-15T00:54:14;101399.13;;;2.64;100.00
64192;BME280;50497;50.720;-2.084;2023-03-15T00:56:47;101410.59;;;2.57;100.00
64192;BME280;50497;50.720;-2.084;2023-03-15T00:59:16;101426.44;;;2.54;100.00
64192;BME280;50497;50.720;-2.084;2023-03-15T01:01:46;101434.41;;;2.49;100.00
64192;BME280;50497;50.720;-2.084;2023-03-15T01:04:15;101427.38;;;2.47;100.00
64192;BME280;50497;50.720;-2.084;2023-03-15T01:06:43;101415.06;;;2.43;100.00
64192;BME280;50497;50.720;-2.084;2023-03-15T01:09:13;101393.94;;;2.36;100.00
64192;BME280;50497;50.720;-2.084;2023-03-15T01:11:39;101393.94;;;2.39;100.00
64192;BME280;50497;50.720;-2.084;2023-03-15T01:14:14;101376.34;;;2.32;100.00
64192;BME280;50497;50.720;-2.084;2023-03-15T01:16:39;101385.13;;;2.40;100.00
64192;BME280;50497;50.720;-2.084;2023-03-15T01:19:11;101395.69;;;2.44;100.00
64192;BME280;50497;50.720;-2.084;2023-03-15T01:21:37;101367.50;;;2.46;100.00
64192;BME280;50497;50.720;-2.084;2023-03-15T01:24:06;101368.41;;;2.38;100.00
64192;BME280;50497;50.720;-2.084;2023-03-15T01:26:35;101337.63;;;2.27;100.00
64192;BME280;50497;50.720;-2.084;2023-03-15T01:29:01;101361.34;;;2.47;100.00
64192;BME280;50497;50.720;-2.084;2023-03-15T01:31:28;101378.97;;;2.42;100.00
64192;BME280;50497;50.720;-2.084;2023-03-15T01:33:55;101395.72;;;2.33;100.00
64192;BME280;50497;50.720;-2.084;2023-03-15T01:36:21;101368.47;;;2.20;100.00
64192;BME280;50497;50.720;-2.084;2023-03-15T01:38:49;101391.31;;;2.30;100.00
64192;BME280;50497;50.720;-2.084;2023-03-15T01:41:16;101394.84;;;2.29;100.00
64192;BME280;50497;50.720;-2.084;2023-03-15T01:43:46;101390.44;;;2.28;100.00
64192;BME280;50497;50.720;-2.084;2023-03-15T01:49:01;101404.50;;;2.35;100.00
64192;BME280;50497;50.720;-2.084;2023-03-15T01:51:36;101402.72;;;2.38;100.00
64192;BME280;50497;50.720;-2.084;2023-03-15T01:54:15;101395.72;;;2.34;100.00
64192;BME280;50497;50.720;-2.084;2023-03-15T01:56:53;101401.00;;;2.34;100.00
64192;BME280;50497;50.720;-2.084;2023-03-15T01:59:38;101377.28;;;2.11;100.00
64192;BME280;50497;50.720;-2.084;2023-03-15T02:02:08;101412.44;;;2.30;100.00
64192;BME280;50497;50.720;-2.084;2023-03-15T02:04:37;101401.88;;;2.30;100.00
64192;BME280;50497;50.720;-2.084;2023-03-15T02:07:07;101390.44;;;2.34;100.00
64192;BME280;50497;50.720;-2.084;2023-03-15T02:10:04;101400.09;;;2.32;100.00
64192;BME280;50497;50.720;-2.084;2023-03-15T02:12:34;101399.22;;;2.38;100.00
64192;BME280;50497;50.720;-2.084;2023-03-15T02:15:07;101354.41;;;2.21;100.00
64192;BME280;50497;50.720;-2.084;2023-03-15T02:17:41;101403.59;;;2.45;100.00
64192;BME280;50497;50.720;-2.084;2023-03-15T02:23:04;101369.34;;;2.22;100.00
64192;BME280;50497;50.720;-2.084;2023-03-15T02:28:17;101355.28;;;2.17;100.00
64192;BME280;50497;50.720;-2.084;2023-03-15T02:30:47;101390.44;;;2.30;100.00
64192;BME280;50497;50.720;-2.084;2023-03-15T02:33:42;101392.22;;;2.23;100.00
64192;BME280;50497;50.720;-2.084;2023-03-15T02:36:22;101386.09;;;2.19;100.00
64192;BME280;50497;50.720;-2.084;2023-03-15T02:38:48;101386.09;;;2.12;100.00
64192;BME280;50497;50.720;-2.084;2023-03-15T02:41:23;101367.66;;;1.92;100.00
64192;BME280;50497;50.720;-2.084;2023-03-15T02:43:54;101400.19;;;1.98;100.00
64192;BME280;50497;50.720;-2.084;2023-03-15T02:46:22;101401.09;;;1.93;100.00
64192;BME280;50497;50.720;-2.084;2023-03-15T02:48:48;101365.94;;;1.64;100.00
64192;BME280;50497;50.720;-2.084;2023-03-15T02:51:23;101364.16;;;1.54;100.00
64192;BME280;50497;50.720;-2.084;2023-03-15T02:53:49;101393.19;;;1.66;100.00
64192;BME280;50497;50.720;-2.084;2023-03-15T02:56:15;101382.63;;;1.54;100.00
64192;BME280;50497;50.720;-2.084;2023-03-15T02:58:41;101393.19;;;1.51;100.00
64192;BME280;50497;50.720;-2.084;2023-03-15T03:01:14;101392.31;;;1.43;100.00
64192;BME280;50497;50.720;-2.084;2023-03-15T03:03:42;101390.53;;;1.42;100.00
64192;BME280;50497;50.720;-2.084;2023-03-15T03:06:09;101380.84;;;1.39;100.00
64192;BME280;50497;50.720;-2.084;2023-03-15T03:08:38;101378.22;;;1.25;100.00
64192;BME280;50497;50.720;-2.084;2023-03-15T03:11:04;101370.28;;;1.12;100.00
64192;BME280;50497;50.720;-2.084;2023-03-15T03:13:30;101386.09;;;1.21;100.00
64192;BME280;50497;50.720;-2.084;2023-03-15T03:15:58;101371.13;;;1.01;100.00
64192;BME280;50497;50.720;-2.084;2023-03-15T03:18:28;101365.00;;;1.01;100.00
64192;BME280;50497;50.720;-2.084;2023-03-15T03:20:55;101389.59;;;1.10;100.00
64192;BME280;50497;50.720;-2.084;2023-03-15T03:23:22;101393.09;;;0.99;100.00
64192;BME280;50497;50.720;-2.084;2023-03-15T03:25:54;101386.06;;;0.98;100.00
64192;BME280;50497;50.720;-2.084;2023-03-15T03:28:25;101393.97;;;0.98;100.00
64192;BME280;50497;50.720;-2.084;2023-03-15T03:30:55;101399.25;;;0.93;100.00
64192;BME280;50497;50.720;-2.084;2023-03-15T03:33:25;101394.81;;;0.87;100.00
64192;BME280;50497;50.720;-2.084;2023-03-15T03:35:50;101400.97;;;0.82;100.00
64192;BME280;50497;50.720;-2.084;2023-03-15T03:38:16;101396.53;;;0.78;100.00
64192;BME280;50497;50.720;-2.084;2023-03-15T03:40:42;101396.53;;;0.76;100.00
64192;BME280;50497;50.720;-2.084;2023-03-15T03:43:11;101398.25;;;0.69;100.00
64192;BME280;50497;50.720;-2.084;2023-03-15T03:45:36;101403.50;;;0.66;100.00
64192;BME280;50497;50.720;-2.084;2023-03-15T03:48:02;101400.00;;;0.66;100.00
64192;BME280;50497;50.720;-2.084;2023-03-15T03:50:28;101393.84;;;0.59;100.00
64192;BME280;50497;50.720;-2.084;2023-03-15T03:52:53;101408.75;;;0.59;100.00
64192;BME280;50497;50.720;-2.084;2023-03-15T03:55:21;101402.59;;;0.60;100.00
64192;BME280;50497;50.720;-2.084;2023-03-15T03:57:50;101395.59;;;0.55;100.00
64192;BME280;50497;50.720;-2.084;2023-03-15T04:00:17;101374.47;;;0.43;100.00
64192;BME280;50497;50.720;-2.084;2023-03-15T04:02:46;101405.22;;;0.58;100.00
64192;BME280;50497;50.720;-2.084;2023-03-15T04:05:12;101401.69;;;0.53;100.00
64192;BME280;50497;50.720;-2.084;2023-03-15T04:07:38;101409.63;;;0.59;100.00
64192;BME280;50497;50.720;-2.084;2023-03-15T04:10:04;101415.75;;;0.52;100.00
64192;BME280;50497;50.720;-2.084;2023-03-15T04:12:31;101413.13;;;0.50;100.00
64192;BME280;50497;50.720;-2.084;2023-03-15T04:14:56;101420.97;;;0.43;100.00
64192;BME280;50497;50.720;-2.084;2023-03-15T04:17:22;101430.63;;;0.42;100.00
64192;BME280;50497;50.720;-2.084;2023-03-15T04:19:48;101429.69;;;0.32;100.00
64192;BME280;50497;50.720;-2.084;2023-03-15T04:22:14;101435.81;;;0.28;100.00
64192;BME280;50497;50.720;-2.084;2023-03-15T04:24:43;101445.41;;;0.20;100.00
64192;BME280;50497;50.720;-2.084;2023-03-15T04:27:16;101426.88;;;0.06;100.00
64192;BME280;50497;50.720;-2.084;2023-03-15T04:29:41;101420.75;;;0.04;100.00
64192;BME280;50497;50.720;-2.084;2023-03-15T04:32:11;101452.41;;;0.18;100.00
64192;BME280;50497;50.720;-2.084;2023-03-15T04:34:37;101447.13;;;0.18;100.00
64192;BME280;50497;50.720;-2.084;2023-03-15T04:37:03;101421.59;;;-0.02;100.00
64192;BME280;50497;50.720;-2.084;2023-03-15T04:39:29;101455.88;;;0.12;100.00
64192;BME280;50497;50.720;-2.084;2023-03-15T04:41:55;101462.00;;;0.11;100.00
64192;BME280;50497;50.720;-2.084;2023-03-15T04:44:23;101469.09;;;0.18;100.00
64192;BME280;50497;50.720;-2.084;2023-03-15T04:46:51;101463.81;;;0.18;100.00
64192;BME280;50497;50.720;-2.084;2023-03-15T04:49:16;101995.09;;;-0.03;100.00
64192;BME280;50497;50.720;-2.084;2023-03-15T04:51:42;102044.50;;;0.16;100.00
64192;BME280;50497;50.720;-2.084;2023-03-15T04:54:07;102047.97;;;0.12;100.00
64192;BME280;50497;50.720;-2.084;2023-03-15T04:56:36;102044.50;;;0.13;100.00
64192;BME280;50497;50.720;-2.084;2023-03-15T04:59:05;102028.41;;;-0.02;100.00
64192;BME280;50497;50.720;-2.084;2023-03-15T05:01:30;102039.88;;;0.00;100.00
64192;BME280;50497;50.720;-2.084;2023-03-15T05:03:58;102054.84;;;0.04;100.00
64192;BME280;50497;50.720;-2.084;2023-03-15T05:06:29;102058.31;;;0.00;100.00
64192;BME280;50497;50.720;-2.084;2023-03-15T05:08:58;102048.47;;;-0.09;100.00
64192;BME280;50497;50.720;-2.084;2023-03-15T05:11:27;102064.19;;;-0.13;100.00
64192;BME280;50497;50.720;-2.084;2023-03-15T05:13:52;102070.19;;;-0.21;100.00
64192;BME280;50497;50.720;-2.084;2023-03-15T05:16:17;102063.91;;;-0.29;100.00
64192;BME280;50497;50.720;-2.084;2023-03-15T05:18:43;102077.97;;;-0.27;100.00
64192;BME280;50497;50.720;-2.084;2023-03-15T05:21:10;102082.19;;;-0.36;100.00
64192;BME280;50497;50.720;-2.084;2023-03-15T05:23:36;102057.19;;;-0.59;100.00
64192;BME280;50497;50.720;-2.084;2023-03-15T05:26:02;102067.84;;;-0.52;100.00
64192;BME280;50497;50.720;-2.084;2023-03-15T05:28:28;102087.03;;;-0.57;100.00
64192;BME280;50497;50.720;-2.084;2023-03-15T05:30:53;102081.53;;;-0.69;100.00
64192;BME280;50497;50.720;-2.084;2023-03-15T05:33:22;102093.16;;;-0.58;100.00
64192;BME280;50497;50.720;-2.084;2023-03-15T05:35:52;102118.56;;;-0.57;100.00
64192;BME280;50497;50.720;-2.084;2023-03-15T05:38:20;102118.53;;;-0.60;100.00
64192;BME280;50497;50.720;-2.084;2023-03-15T05:40:53;102122.84;;;-0.62;100.00
64192;BME280;50497;50.720;-2.084;2023-03-15T05:43:19;102128.03;;;-0.66;100.00
64192;BME280;50497;50.720;-2.084;2023-03-15T05:45:46;102135.06;;;-0.64;100.00
64192;BME280;50497;50.720;-2.084;2023-03-15T05:48:16;102112.81;;;-0.81;100.00
64192;BME280;50497;50.720;-2.084;2023-03-15T05:50:42;102145.81;;;-0.54;100.00
64192;BME280;50497;50.720;-2.084;2023-03-15T05:53:08;102146.03;;;-0.42;100.00
64192;BME280;50497;50.720;-2.084;2023-03-15T05:55:34;102148.53;;;-0.48;100.00
64192;BME280;50497;50.720;-2.084;2023-03-15T05:58:02;102143.19;;;-0.54;100.00
64192;BME280;50497;50.720;-2.084;2023-03-15T06:00:28;102156.34;;;-0.53;100.00
64192;BME280;50497;50.720;-2.084;2023-03-15T06:02:53;102158.06;;;-0.53;100.00
64192;BME280;50497;50.720;-2.084;2023-03-15T06:05:19;102138.56;;;-0.65;100.00
64192;BME280;50497;50.720;-2.084;2023-03-15T06:07:44;102175.81;;;-0.43;100.00
64192;BME280;50497;50.720;-2.084;2023-03-15T06:10:10;102172.38;;;-0.41;100.00
64192;BME280;50497;50.720;-2.084;2023-03-15T06:12:36;102185.56;;;-0.39;100.00
64192;BME280;50497;50.720;-2.084;2023-03-15T06:15:02;102182.22;;;-0.30;100.00
64192;BME280;50497;50.720;-2.084;2023-03-15T06:17:27;102186.78;;;-0.22;100.00
64192;BME280;50497;50.720;-2.084;2023-03-15T06:19:53;102194.78;;;-0.15;100.00
64192;BME280;50497;50.720;-2.084;2023-03-15T06:22:18;102174.34;;;-0.30;100.00
64192;BME280;50497;50.720;-2.084;2023-03-15T06:24:45;102208.16;;;-0.06;100.00
64192;BME280;50497;50.720;-2.084;2023-03-15T06:27:11;102186.84;;;-0.19;100.00
64192;BME280;50497;50.720;-2.084;2023-03-15T06:29:36;102221.44;;;0.02;100.00
64192;BME280;50497;50.720;-2.084;2023-03-15T06:32:02;102216.19;;;0.02;100.00
64192;BME280;50497;50.720;-2.084;2023-03-15T06:34:27;102195.72;;;-0.13;100.00
64192;BME280;50497;50.720;-2.084;2023-03-15T06:36:56;102239.13;;;0.07;100.00
64192;BME280;50497;50.720;-2.084;2023-03-15T06:39:21;102235.63;;;0.10;100.00
64192;BME280;50497;50.720;-2.084;2023-03-15T06:41:51;102232.13;;;0.09;100.00
64192;BME280;50497;50.720;-2.084;2023-03-15T06:44:18;102246.41;;;0.21;100.00
64192;BME280;50497;50.720;-2.084;2023-03-15T06:46:44;102219.84;;;0.10;100.00
64192;BME280;50497;50.720;-2.084;2023-03-15T06:49:13;102230.53;;;0.17;100.00
64192;BME280;50497;50.720;-2.084;2023-03-15T06:51:39;102244.63;;;0.21;100.00
64192;BME280;50497;50.720;-2.084;2023-03-15T06:54:06;102236.88;;;0.27;100.00
64192;BME280;50497;50.720;-2.084;2023-03-15T06:56:32;102264.38;;;0.43;100.00
64192;BME280;50497;50.720;-2.084;2023-03-15T06:59:02;102260.94;;;0.47;100.00
64192;BME280;50497;50.720;-2.084;2023-03-15T07:01:28;102262.75;;;0.51;100.00
64192;BME280;50497;50.720;-2.084;2023-03-15T07:03:57;102262.94;;;0.61;100.00
64192;BME280;50497;50.720;-2.084;2023-03-15T07:06:22;102273.69;;;0.71;100.00
64192;BME280;50497;50.720;-2.084;2023-03-15T07:08:52;102265.97;;;0.84;100.00
64192;BME280;50497;50.720;-2.084;2023-03-15T07:11:31;102269.56;;;0.87;100.00
64192;BME280;50497;50.720;-2.084;2023-03-15T07:14:08;102265.13;;;0.85;100.00
64192;BME280;50497;50.720;-2.084;2023-03-15T07:16:33;102268.59;;;0.82;100.00
64192;BME280;50497;50.720;-2.084;2023-03-15T07:19:09;102244.66;;;0.68;100.00
64192;BME280;50497;50.720;-2.084;2023-03-15T07:21:40;102242.03;;;0.70;100.00
64192;BME280;50497;50.720;-2.084;2023-03-15T07:24:09;102244.88;;;0.82;100.00
64192;BME280;50497;50.720;-2.084;2023-03-15T07:26:37;102247.75;;;0.98;100.00
64192;BME280;50497;50.720;-2.084;2023-03-15T07:29:12;102245.53;;;1.22;100.00
64192;BME280;50497;50.720;-2.084;2023-03-15T07:31:42;102246.72;;;1.43;100.00
64192;BME280;50497;50.720;-2.084;2023-03-15T07:34:15;102242.44;;;1.51;100.00
64192;BME280;50497;50.720;-2.084;2023-03-15T07:36:41;102229.19;;;1.46;100.00
64192;BME280;50497;50.720;-2.084;2023-03-15T07:39:06;102226.63;;;1.54;100.00
64192;BME280;50497;50.720;-2.084;2023-03-15T07:41:32;102222.56;;;1.76;100.00
64192;BME280;50497;50.720;-2.084;2023-03-15T07:44:02;102227.00;;;1.82;100.00
64192;BME280;50497;50.720;-2.084;2023-03-15T07:46:28;102217.56;;;1.99;100.00
64192;BME280;50497;50.720;-2.084;2023-03-15T07:49:09;102213.06;;;1.94;100.00
64192;BME280;50497;50.720;-2.084;2023-03-15T07:51:47;102182.25;;;1.90;100.00
64192;BME280;50497;50.720;-2.084;2023-03-15T07:54:23;102205.47;;;2.20;100.00
64192;BME280;50497;50.720;-2.084;2023-03-15T07:57:05;102200.38;;;2.38;100.00
64192;BME280;50497;50.720;-2.084;2023-03-15T07:59:37;102190.78;;;2.50;100.00
64192;BME280;50497;50.720;-2.084;2023-03-15T08:02:18;102188.16;;;2.50;100.00
64192;BME280;50497;50.720;-2.084;2023-03-15T08:04:44;102189.09;;;2.58;100.00
64192;BME280;50497;50.720;-2.084;2023-03-15T08:07:14;102176.03;;;2.76;100.00
64192;BME280;50497;50.720;-2.084;2023-03-15T08:09:39;102172.59;;;2.87;100.00
64192;BME280;50497;50.720;-2.084;2023-03-15T08:12:09;102166.53;;;3.02;100.00
64192;BME280;50497;50.720;-2.084;2023-03-15T08:14:41;102161.34;;;3.14;100.00
64192;BME280;50497;50.720;-2.084;2023-03-15T08:17:11;102147.25;;;3.18;100.00
64192;BME280;50497;50.720;-2.084;2023-03-15T08:19:39;102139.41;;;3.37;100.00
64192;BME280;50497;50.720;-2.084;2023-03-15T08:22:12;102086.44;;;3.23;100.00
64192;BME280;50497;50.720;-2.084;2023-03-15T08:24:46;102122.75;;;3.56;100.00
64192;BME280;50497;50.720;-2.084;2023-03-15T08:27:12;102116.66;;;3.77;100.00
64192;BME280;50497;50.720;-2.084;2023-03-15T08:29:56;102100.78;;;3.94;100.00
64192;BME280;50497;50.720;-2.084;2023-03-15T08:32:27;102095.50;;;3.96;100.00
64192;BME280;50497;50.720;-2.084;2023-03-15T08:34:55;102084.91;;;4.11;100.00
64192;BME280;50497;50.720;-2.084;2023-03-15T08:37:27;102069.94;;;4.32;100.00
64192;BME280;50497;50.720;-2.084;2023-03-15T08:39:52;102060.22;;;4.35;100.00
64192;BME280;50497;50.720;-2.084;2023-03-15T08:42:26;102047.81;;;4.50;100.00
64192;BME280;50497;50.720;-2.084;2023-03-15T08:44:52;102019.59;;;4.25;100.00
64192;BME280;50497;50.720;-2.084;2023-03-15T08:47:24;102014.28;;;4.39;100.00
64192;BME280;50497;50.720;-2.084;2023-03-15T08:49:53;101995.69;;;4.58;100.00
64192;BME280;50497;50.720;-2.084;2023-03-15T08:52:24;102005.34;;;4.85;100.00
64192;BME280;50497;50.720;-2.084;2023-03-15T08:54:55;101993.75;;;5.05;100.00
64192;BME280;50497;50.720;-2.084;2023-03-15T08:57:25;101963.59;;;5.21;100.00
64192;BME280;50497;50.720;-2.084;2023-03-15T09:00:01;101900.88;;;5.14;100.00
64192;BME280;50497;50.720;-2.084;2023-03-15T09:02:37;101910.50;;;5.29;100.00
64192;BME280;50497;50.720;-2.084;2023-03-15T09:05:09;101895.47;;;5.28;100.00
64192;BME280;50497;50.720;-2.084;2023-03-15T09:07:40;101880.28;;;5.48;100.00
64192;BME280;50497;50.720;-2.084;2023-03-15T09:10:10;101870.34;;;5.70;100.00
64192;BME280;50497;50.720;-2.084;2023-03-15T09:12:45;101851.72;;;5.75;100.00
64192;BME280;50497;50.720;-2.084;2023-03-15T09:15:14;101851.63;;;5.84;100.00
64192;BME280;50497;50.720;-2.084;2023-03-15T09:17:51;101823.22;;;5.92;100.00
64192;BME280;50497;50.720;-2.084;2023-03-15T09:20:31;101806.38;;;6.00;100.00
64192;BME280;50497;50.720;-2.084;2023-03-15T09:23:01;101790.25;;;6.14;100.00
64192;BME280;50497;50.720;-2.084;2023-03-15T09:25:31;101758.56;;;5.95;100.00
64192;BME280;50497;50.720;-2.084;2023-03-15T09:28:04;101723.06;;;6.04;100.00
64192;BME280;50497;50.720;-2.084;2023-03-15T09:30:35;101749.56;;;6.08;100.00
64192;BME280;50497;50.720;-2.084;2023-03-15T09:33:21;101750.16;;;6.31;100.00
64192;BME280;50497;50.720;-2.084;2023-03-15T09:35:56;101754.50;;;6.39;100.00
64192;BME280;50497;50.720;-2.084;2023-03-15T09:38:33;101729.28;;;6.66;100.00
64192;BME280;50497;50.720;-2.084;2023-03-15T09:42:03;101719.34;;;6.79;100.00
64192;BME280;50497;50.720;-2.084;2023-03-15T09:44:23;101710.72;;;7.16;100.00
64192;BME280;50497;50.720;-2.084;2023-03-15T09:46:55;101664.41;;;7.27;100.00
64192;BME280;50497;50.720;-2.084;2023-03-15T09:52:38;101566.09;;;7.61;100.00
64192;BME280;50497;50.720;-2.084;2023-03-15T09:55:27;101554.22;;;7.76;100.00
64192;BME280;50497;50.720;-2.084;2023-03-15T09:57:57;101514.25;;;7.76;100.00
64192;BME280;50497;50.720;-2.084;2023-03-15T10:00:37;101478.84;;;7.71;100.00
64192;BME280;50497;50.720;-2.084;2023-03-15T10:06:19;101418.69;;;7.98;100.00
64192;BME280;50497;50.720;-2.084;2023-03-15T10:09:09;101401.28;;;7.83;100.00
64192;BME280;50497;50.720;-2.084;2023-03-15T10:11:49;101384.28;;;7.89;100.00
64192;BME280;50497;50.720;-2.084;2023-03-15T10:14:24;101358.28;;;7.99;100.00
64192;BME280;50497;50.720;-2.084;2023-03-15T10:17:10;101309.84;;;7.83;100.00
64192;BME280;50497;50.720;-2.084;2023-03-15T10:20:10;101318.50;;;7.91;100.00
64192;BME280;50497;50.720;-2.084;2023-03-15T10:22:54;101332.53;;;8.30;100.00
64192;BME280;50497;50.720;-2.084;2023-03-15T10:25:23;101287.28;;;8.27;100.00
64192;BME280;50497;50.720;-2.084;2023-03-15T10:30:37;101258.69;;;8.32;100.00
64192;BME280;50497;50.720;-2.084;2023-03-15T10:33:34;101246.19;;;8.35;100.00
64192;BME280;50497;50.720;-2.084;2023-03-15T10:36:20;101232.63;;;8.44;100.00
64192;BME280;50497;50.720;-2.084;2023-03-15T10:38:59;101216.19;;;8.58;100.00
64192;BME280;50497;50.720;-2.084;2023-03-15T10:41:46;101199.00;;;8.66;100.00
64192;BME280;50497;50.720;-2.084;2023-03-15T10:47:12;101162.28;;;9.01;100.00
64192;BME280;50497;50.720;-2.084;2023-03-15T10:49:39;101112.50;;;8.75;100.00
64192;BME280;50497;50.720;-2.084;2023-03-15T10:52:25;101134.47;;;9.09;100.00
64192;BME280;50497;50.720;-2.084;2023-03-15T10:54:51;101125.97;;;9.22;100.00
64192;BME280;50497;50.720;-2.084;2023-03-15T10:57:18;101104.31;;;8.53;100.00
64192;BME280;50497;50.720;-2.084;2023-03-15T10:59:57;101144.09;;;8.87;100.00
64192;BME280;50497;50.720;-2.084;2023-03-15T11:02:59;101141.16;;;8.95;100.00
64192;BME280;50497;50.720;-2.084;2023-03-15T11:05:29;101138.09;;;8.81;100.00
64192;BME280;50497;50.720;-2.084;2023-03-15T11:07:58;101178.72;;;8.89;100.00
64192;BME280;50497;50.720;-2.084;2023-03-15T11:10:28;101205.84;;;9.03;100.00
64192;BME280;50497;50.720;-2.084;2023-03-15T11:13:18;101227.22;;;8.75;100.00
64192;BME280;50497;50.720;-2.084;2023-03-15T11:19:03;101223.31;;;8.57;100.00
64192;BME280;50497;50.720;-2.084;2023-03-15T11:21:48;101235.41;;;8.69;100.00
64192;BME280;50497;50.720;-2.084;2023-03-15T11:24:24;101227.34;;;8.71;100.00
64192;BME280;50497;50.720;-2.084;2023-03-15T11:26:56;101238.50;;;8.55;100.00
64192;BME280;50497;50.720;-2.084;2023-03-15T11:29:36;101234.59;;;8.67;100.00
64192;BME280;50497;50.720;-2.084;2023-03-15T11:32:15;101219.16;;;8.77;100.00
64192;BME280;50497;50.720;-2.084;2023-03-15T11:37:24;101217.94;;;8.87;100.00
64192;BME280;50497;50.720;-2.084;2023-03-15T11:43:02;101156.22;;;8.96;100.00
64192;BME280;50497;50.720;-2.084;2023-03-15T11:51:06;101162.34;;;9.27;100.00
64192;BME280;50497;50.720;-2.084;2023-03-15T11:56:44;101134.03;;;8.96;100.00
64192;BME280;50497;50.720;-2.084;2023-03-15T11:59:13;101167.13;;;9.17;100.00
64192;BME280;50497;50.720;-2.084;2023-03-15T12:07:02;101147.56;;;9.41;100.00
64192;BME280;50497;50.720;-2.084;2023-03-15T12:12:05;101124.97;;;10.21;100.00
64192;BME280;50497;50.720;-2.084;2023-03-15T12:20:16;100982.44;;;9.97;100.00
64192;BME280;50497;50.720;-2.084;2023-03-15T12:22:52;100972.50;;;9.78;100.00
64192;BME280;50497;50.720;-2.084;2023-03-15T12:25:24;100957.28;;;9.58;100.00
64192;BME280;50497;50.720;-2.084;2023-03-15T12:27:59;100956.53;;;9.55;100.00
64192;BME280;50497;50.720;-2.084;2023-03-15T12:30:53;100968.53;;;9.67;100.00
64192;BME280;50497;50.720;-2.084;2023-03-15T12:33:24;100941.16;;;9.38;100.00
64192;BME280;50497;50.720;-2.084;2023-03-15T12:36:18;100973.31;;;9.80;100.00
64192;BME280;50497;50.720;-2.084;2023-03-15T12:39:17;100933.06;;;9.63;100.00
64192;BME280;50497;50.720;-2.084;2023-03-15T12:41:47;100925.88;;;9.86;100.00
64192;BME280;50497;50.720;-2.084;2023-03-15T12:49:27;100996.13;;;10.54;100.00
64192;BME280;50497;50.720;-2.084;2023-03-15T12:54:49;100977.00;;;10.63;100.00
64192;BME280;50497;50.720;-2.084;2023-03-15T12:57:28;100961.09;;;10.40;100.00
64192;BME280;50497;50.720;-2.084;2023-03-15T12:59:59;100967.16;;;10.43;100.00
64192;BME280;50497;50.720;-2.084;2023-03-15T13:02:33;100954.81;;;10.18;100.00
64192;BME280;50497;50.720;-2.084;2023-03-15T13:10:36;100925.44;;;9.74;100.00
64192;BME280;50497;50.720;-2.084;2023-03-15T13:16:13;100934.84;;;9.62;100.00
64192;BME280;50497;50.720;-2.084;2023-03-15T13:27:55;100901.34;;;9.32;100.00
64192;BME280;50497;50.720;-2.084;2023-03-15T13:32:45;100830.50;;;9.23;100.00
64192;BME280;50497;50.720;-2.084;2023-03-15T13:35:12;100867.38;;;9.35;100.00
64192;BME280;50497;50.720;-2.084;2023-03-15T13:37:38;100874.59;;;9.33;100.00
64192;BME280;50497;50.720;-2.084;2023-03-15T13:40:15;100879.97;;;9.10;100.00
64192;BME280;50497;50.720;-2.084;2023-03-15T13:42:42;100922.50;;;9.14;100.00
64192;BME280;50497;50.720;-2.084;2023-03-15T13:47:39;100974.75;;;8.73;100.00
64192;BME280;50497;50.720;-2.084;2023-03-15T13:50:05;101046.06;;;8.93;100.00
64192;BME280;50497;50.720;-2.084;2023-03-15T13:52:34;101074.91;;;8.81;100.00
64192;BME280;50497;50.720;-2.084;2023-03-15T13:55:00;101098.25;;;8.75;100.00
64192;BME280;50497;50.720;-2.084;2023-03-15T13:57:30;101153.06;;;8.85;100.00
64192;BME280;50497;50.720;-2.084;2023-03-15T13:59:58;101165.13;;;8.97;100.00
64192;BME280;50497;50.720;-2.084;2023-03-15T14:02:43;101179.13;;;9.03;100.00
64192;BME280;50497;50.720;-2.084;2023-03-15T14:05:14;101164.66;;;8.84;100.00
64192;BME280;50497;50.720;-2.084;2023-03-15T14:07:47;101174.00;;;8.97;100.00
64192;BME280;50497;50.720;-2.084;2023-03-15T14:12:44;101188.47;;;9.17;100.00
64192;BME280;50497;50.720;-2.084;2023-03-15T14:15:20;101182.78;;;9.01;100.00
64192;BME280;50497;50.720;-2.084;2023-03-15T14:20:45;101139.00;;;8.80;100.00
64192;BME280;50497;50.720;-2.084;2023-03-15T14:23:16;101139.94;;;8.79;100.00
64192;BME280;50497;50.720;-2.084;2023-03-15T14:26:38;101171.69;;;9.13;100.00